Time;durP1;ratioP1;P1;durP2;ratioP2;P2;SDS_P1;SDS_P2;PMS_P1;PMS_P2;Temp;Humidity;BMP_temperature;BMP_pressure;BME280_temperature;BME280_humidity;BME280_pressure;Samples;Min_cycle;Max_cycle;Signal;HPM_P1;HPM_P2
2022/05/06 00:01:51;;;;;;;15.90;7.40;;;11.90;99.90;;;;;;5081292;28;20502;-84
2022/05/06 00:04:18;;;;;;;8.03;5.60;;;12.00;99.90;;;;;;5080959;28;20472;-84
2022/05/06 00:06:46;;;;;;;6.83;6.00;;;11.60;99.90;;;;;;5079808;28;20448;-84
2022/05/06 00:09:13;;;;;;;11.63;6.60;;;11.90;99.90;;;;;;5080987;28;20465;-84
2022/05/06 00:11:39;;;;;;;6.70;6.00;;;12.00;99.90;;;;;;5080582;28;20452;-84
2022/05/06 00:14:06;;;;;;;8.80;6.27;;;11.90;27.60;;;;;;5081471;28;20449;-84
2022/05/06 00:16:33;;;;;;;9.43;6.70;;;11.90;1.00;;;;;;5081627;28;20831;-84
2022/05/06 00:19:00;;;;;;;7.07;6.40;;;11.80;99.90;;;;;;5083181;28;20475;-85
2022/05/06 00:21:26;;;;;;;12.80;6.13;;;11.70;1.00;;;;;;5083112;28;20453;-85
2022/05/06 00:23:54;;;;;;;7.67;6.97;;;11.70;1.00;;;;;;5081326;28;20476;-84
2022/05/06 00:26:21;;;;;;;10.50;6.67;;;11.60;1.00;;;;;;5082261;28;20489;-84
2022/05/06 00:28:48;;;;;;;9.50;7.90;;;11.60;1.00;;;;;;5081846;28;20983;-84
2022/05/06 00:31:14;;;;;;;8.27;6.20;;;11.50;1.00;;;;;;5082324;28;20441;-83
2022/05/06 00:33:43;;;;;;;7.53;6.00;;;11.70;1.00;;;;;;5081997;28;20944;-84
2022/05/06 00:36:11;;;;;;;9.40;6.27;;;11.70;1.00;;;;;;5080973;28;20456;-83
2022/05/06 00:38:37;;;;;;;7.10;6.40;;;11.90;1.00;;;;;;5082308;28;20444;-83
2022/05/06 00:41:05;;;;;;;7.73;6.40;;;11.60;1.00;;;;;;5081912;28;20476;-83
2022/05/06 00:43:32;;;;;;;11.90;6.73;;;;;;;;;;5082513;28;20445;-84
2022/05/06 00:45:59;;;;;;;9.87;6.93;;;11.70;1.00;;;;;;5093962;28;20425;-84
2022/05/06 00:48:27;;;;;;;6.67;6.00;;;11.40;99.90;;;;;;5099741;28;20431;-84
2022/05/06 00:50:57;;;;;;;9.00;7.40;;;11.40;99.90;;;;;;5099529;28;20432;-84
2022/05/06 00:53:24;;;;;;;9.60;7.60;;;10.90;1.00;;;;;;5099724;28;20390;-84
2022/05/06 00:55:51;;;;;;;8.60;7.23;;;11.40;1.00;;;;;;5099746;28;20484;-84
2022/05/06 00:58:20;;;;;;;11.93;6.70;;;11.30;1.00;;;;;;5099947;28;20463;-85
2022/05/06 01:00:47;;;;;;;8.63;6.70;;;11.30;1.00;;;;;;5090350;28;20509;-84
2022/05/06 01:03:14;;;;;;;9.80;7.00;;;11.20;82.60;;;;;;5082102;28;20457;-84
2022/05/06 01:05:41;;;;;;;8.93;6.60;;;11.10;99.90;;;;;;5080854;28;20842;-84
2022/05/06 01:08:10;;;;;;;9.30;6.90;;;11.60;99.90;;;;;;5083122;28;20475;-84
2022/05/06 01:10:37;;;;;;;12.17;6.83;;;11.00;99.90;;;;;;5086268;28;20469;-84
2022/05/06 01:13:04;;;;;;;9.63;7.03;;;11.00;1.00;;;;;;5083471;28;20460;-84
2022/05/06 01:15:32;;;;;;;10.60;6.90;;;11.00;99.90;;;;;;5082953;28;20444;-83
2022/05/06 01:17:59;;;;;;;8.30;6.30;;;11.10;1.00;;;;;;5083529;28;20461;-83
2022/05/06 01:20:27;;;;;;;7.17;6.57;;;10.70;1.00;;;;;;5083443;28;20473;-84
2022/05/06 01:22:58;;;;;;;8.63;7.40;;;10.90;1.00;;;;;;5082585;28;20426;-84
2022/05/06 01:25:25;;;;;;;9.90;7.30;;;10.80;1.00;;;;;;5108728;22;20487;-78
2022/05/06 01:27:56;;;;;;;7.40;6.60;;;10.70;1.00;;;;;;5099200;28;20861;-78
2022/05/06 01:30:32;;;;;;;8.37;7.07;;;10.80;1.00;;;;;;5099092;28;20420;-79
2022/05/06 01:33:01;;;;;;;11.77;7.50;;;10.70;1.00;;;;;;5098379;28;20423;-77
2022/05/06 01:35:29;;;;;;;9.00;7.20;;;10.60;1.00;;;;;;5100467;28;20456;-78
2022/05/06 01:38:01;;;;;;;7.97;7.17;;;10.60;1.00;;;;;;5103038;28;20554;-78
2022/05/06 01:40:29;;;;;;;10.43;7.30;;;10.60;1.00;;;;;;5103436;28;20428;-78
2022/05/06 01:42:58;;;;;;;8.70;6.83;;;10.60;1.00;;;;;;5104575;28;20489;-78
2022/05/06 01:45:28;;;;;;;9.93;8.00;;;10.80;1.00;;;;;;5103004;28;20496;-78
2022/05/06 01:47:56;;;;;;;9.90;7.30;;;10.70;1.00;;;;;;5101580;28;20432;-78
2022/05/06 01:50:24;;;;;;;10.60;7.43;;;10.80;1.00;;;;;;5104528;28;20440;-80
2022/05/06 01:52:51;;;;;;;12.17;8.37;;;10.70;1.00;;;;;;5103169;28;20444;-78
2022/05/06 01:55:20;;;;;;;9.77;8.77;;;10.70;1.00;;;;;;5105816;28;20463;-77
2022/05/06 01:57:46;;;;;;;10.90;9.53;;;10.70;1.00;;;;;;5104415;28;20436;-77
2022/05/06 02:00:15;;;;;;;10.90;7.47;;;10.50;1.00;;;;;;5107739;28;20530;-77
2022/05/06 02:02:42;;;;;;;14.93;9.27;;;10.80;1.00;;;;;;5106908;28;20443;-76
2022/05/06 02:05:17;;;;;;;15.87;9.43;;;10.50;1.00;;;;;;5106369;28;20484;-78
2022/05/06 02:07:43;;;;;;;15.97;8.37;;;10.50;1.00;;;;;;5107226;28;20430;-77
2022/05/06 02:10:10;;;;;;;11.27;8.90;;;10.40;1.00;;;;;;5109065;28;20440;-78
2022/05/06 02:12:38;;;;;;;11.73;8.50;;;10.30;1.00;;;;;;5109947;28;20501;-80
2022/05/06 02:15:07;;;;;;;9.13;8.27;;;10.40;1.00;;;;;;5109742;28;20452;-79
2022/05/06 02:17:33;;;;;;;11.53;8.90;;;9.70;22.00;;;;;;5108257;28;20448;-77
2022/05/06 02:20:00;;;;;;;10.20;8.63;;;10.20;5.70;;;;;;5108861;28;20440;-79
2022/05/06 02:22:29;;;;;;;10.60;8.60;;;10.20;3.70;;;;;;5106428;28;20930;-78
2022/05/06 02:24:56;;;;;;;12.10;9.27;;;10.20;1.00;;;;;;5108021;28;20511;-79
2022/05/06 02:27:23;;;;;;;11.03;8.90;;;10.40;17.80;;;;;;5108446;28;20436;-79
2022/05/06 02:35:19;;;;;;;8.77;7.67;;;10.50;33.40;;;;;;5104854;28;20439;-79
2022/05/06 02:37:46;;;;;;;10.03;7.90;;;10.00;29.40;;;;;;5111774;28;20444;-78
2022/05/06 02:40:13;;;;;;;8.83;8.03;;;10.20;1.20;;;;;;5112504;28;20447;-77
2022/05/06 02:42:40;;;;;;;10.90;8.57;;;10.30;5.80;;;;;;5112878;28;20452;-78
2022/05/06 02:45:09;;;;;;;9.27;8.30;;;10.20;25.70;;;;;;5112584;28;20487;-78
2022/05/06 02:47:36;;;;;;;9.03;7.90;;;10.30;5.50;;;;;;5112443;28;20415;-78
2022/05/06 02:50:03;;;;;;;11.13;8.43;;;10.30;1.00;;;;;;5107663;28;20440;-77
2022/05/06 02:52:30;;;;;;;10.77;8.70;;;10.30;1.00;;;;;;5100297;28;20452;-78
2022/05/06 02:54:56;;;;;;;9.50;8.60;;;10.20;11.90;;;;;;5098064;28;20460;-78
2022/05/06 02:57:23;;;;;;;8.67;7.80;;;10.20;17.40;;;;;;5098018;28;20455;-80
2022/05/06 02:59:50;;;;;;;8.33;7.43;;;10.30;24.20;;;;;;5106290;28;20494;-78
2022/05/06 03:02:18;;;;;;;15.70;8.17;;;10.30;14.00;;;;;;5111697;28;20943;-79
2022/05/06 03:04:44;;;;;;;8.93;8.13;;;10.20;13.00;;;;;;5102191;28;20487;-79
2022/05/06 03:07:11;;;;;;;10.33;9.23;;;10.30;13.00;;;;;;5100282;28;20448;-79
2022/05/06 03:09:39;;;;;;;16.47;8.40;;;10.20;15.50;;;;;;5099937;28;20561;-79
2022/05/06 03:12:07;;;;;;;11.67;8.73;;;10.20;11.20;;;;;;5100143;28;20831;-79
2022/05/06 03:14:34;;;;;;;12.20;8.10;;;10.30;31.10;;;;;;5101021;28;20463;-78
2022/05/06 03:17:01;;;;;;;10.00;8.90;;;10.30;1.00;;;;;;5100644;28;20443;-79
2022/05/06 03:19:28;;;;;;;10.40;8.30;;;10.20;11.20;;;;;;5100968;28;20443;-79
2022/05/06 03:21:55;;;;;;;11.13;8.50;;;10.20;31.90;;;;;;5101312;28;20480;-78
2022/05/06 03:24:23;;;;;;;13.83;8.40;;;10.20;32.00;;;;;;5101170;28;20471;-79
2022/05/06 03:26:50;;;;;;;9.87;8.60;;;10.20;25.00;;;;;;5100266;28;21012;-79
2022/05/06 03:29:16;;;;;;;11.03;8.90;;;10.20;28.50;;;;;;5101467;28;20475;-78
2022/05/06 03:31:43;;;;;;;10.60;8.33;;;10.10;41.30;;;;;;5099695;28;20479;-77
2022/05/06 03:34:11;;;;;;;11.63;8.20;;;10.10;64.90;;;;;;5101673;28;20536;-77
2022/05/06 03:36:39;;;;;;;9.50;8.60;;;10.10;78.90;;;;;;5107670;28;20485;-77
2022/05/06 03:39:06;;;;;;;12.00;8.80;;;10.10;45.80;;;;;;5114032;28;20815;-79
2022/05/06 03:41:32;;;;;;;11.80;9.23;;;10.10;36.30;;;;;;5109698;28;20949;-78
2022/05/06 03:43:59;;;;;;;9.77;8.67;;;10.10;72.90;;;;;;5101128;28;20906;-78
2022/05/06 03:46:26;;;;;;;13.47;9.13;;;10.00;93.50;;;;;;5100563;28;20472;-79
2022/05/06 03:48:52;;;;;;;16.63;9.47;;;10.10;84.10;;;;;;5100399;28;20447;-80
2022/05/06 03:51:21;;;;;;;12.63;8.83;;;10.30;29.90;;;;;;5102349;28;20448;-81
2022/05/06 03:53:49;;;;;;;13.30;12.10;;;10.30;40.30;;;;;;5100841;28;20460;-81
2022/05/06 03:56:16;;;;;;;10.77;9.77;;;10.30;25.30;;;;;;5100212;28;20440;-80
2022/05/06 03:58:42;;;;;;;10.07;8.80;;;10.60;20.60;;;;;;5100222;28;20440;-81
2022/05/06 04:01:09;;;;;;;8.93;7.80;;;10.50;11.90;;;;;;5100314;28;20818;-81
2022/05/06 04:03:37;;;;;;;9.70;8.60;;;10.40;20.40;;;;;;5099953;28;20565;-81
2022/05/06 04:06:04;;;;;;;10.90;8.17;;;10.30;49.30;;;;;;5100114;28;20490;-81
2022/05/06 04:08:31;;;;;;;10.10;9.03;;;10.40;38.80;;;;;;5100603;28;20466;-80
2022/05/06 04:10:59;;;;;;;15.20;9.33;;;10.50;33.20;;;;;;5100920;28;20976;-81
2022/05/06 04:13:26;;;;;;;9.77;8.40;;;10.30;56.50;;;;;;5101072;28;20853;-81
2022/05/06 04:15:53;;;;;;;9.57;8.30;;;10.50;25.60;;;;;;5101230;28;20414;-80
2022/05/06 04:18:19;;;;;;;12.70;9.30;;;10.60;31.80;;;;;;5100543;28;20486;-80
2022/05/06 04:23:30;;;;;;;11.80;9.53;;;11.00;76.00;;;;;;5101998;28;20463;-80
2022/05/06 04:25:59;;;;;;;10.43;8.33;;;10.60;38.50;;;;;;5099851;28;20442;-79
2022/05/06 04:28:26;;;;;;;15.10;9.00;;;10.70;18.20;;;;;;5099169;28;20455;-81
2022/05/06 04:30:53;;;;;;;13.67;8.70;;;10.80;15.70;;;;;;5099216;28;20501;-80
2022/05/06 04:33:21;;;;;;;14.83;9.33;;;11.10;1.00;;;;;;5099127;28;20451;-80
2022/05/06 04:35:48;;;;;;;11.10;8.90;;;10.90;1.00;;;;;;5099307;28;20444;-80
2022/05/06 04:38:15;;;;;;;16.50;9.27;;;11.10;1.00;;;;;;5099370;28;20478;-80
2022/05/06 04:40:42;;;;;;;14.43;9.60;;;11.20;1.00;;;;;;5098141;28;20481;-81
2022/05/06 04:43:11;;;;;;;12.70;9.60;;;11.20;1.00;;;;;;5098604;28;20418;-81
2022/05/06 04:45:38;;;;;;;9.63;8.50;;;11.30;1.00;;;;;;5104090;28;20553;-80
2022/05/06 04:48:05;;;;;;;11.77;9.10;;;11.40;1.00;;;;;;5102315;28;20539;-81
2022/05/06 04:50:32;;;;;;;10.63;9.20;;;11.50;1.00;;;;;;5100325;28;20440;-81
2022/05/06 04:52:58;;;;;;;15.50;9.40;;;11.50;1.00;;;;;;5100701;28;21056;-79
2022/05/06 04:55:25;;;;;;;11.53;9.63;;;11.80;1.00;;;;;;5105753;28;20832;-82
2022/05/06 04:57:52;;;;;;;12.20;9.17;;;11.50;1.00;;;;;;5106047;28;20451;-82
2022/05/06 05:00:22;;;;;;;10.87;8.87;;;11.80;1.00;;;;;;5105030;28;20439;-81
2022/05/06 05:02:48;;;;;;;17.67;9.80;;;11.70;1.00;;;;;;5117627;28;20443;-81
2022/05/06 05:05:15;;;;;;;12.00;8.70;;;12.10;1.00;;;;;;5117243;28;20476;-81
2022/05/06 05:07:42;;;;;;;15.63;9.83;;;11.80;1.00;;;;;;5101090;28;20436;-82
2022/05/06 05:10:09;;;;;;;12.13;9.70;;;12.00;99.90;;;;;;5104065;28;20470;-80
2022/05/06 05:12:36;;;;;;;14.80;10.50;;;12.10;94.30;;;;;;5103535;28;20473;-79
2022/05/06 05:15:03;;;;;;;15.30;8.90;;;12.20;99.90;;;;;;5105167;28;20463;-79
2022/05/06 05:17:31;;;;;;;24.17;9.83;;;12.20;99.90;;;;;;5103546;28;20460;-79
2022/05/06 05:19:57;;;;;;;9.27;8.33;;;12.20;59.20;;;;;;5101845;28;20490;-79
2022/05/06 05:22:24;;;;;;;13.70;8.80;;;12.20;1.00;;;;;;5098127;28;20448;-80
2022/05/06 05:24:51;;;;;;;15.03;9.10;;;12.30;99.90;;;;;;5098284;28;20451;-81
2022/05/06 05:27:17;;;;;;;13.27;9.37;;;12.40;1.00;;;;;;5097386;28;20451;-81
2022/05/06 05:29:45;;;;;;;12.23;9.60;;;12.50;1.00;;;;;;5097845;28;20440;-83
2022/05/06 05:32:12;;;;;;;17.90;9.63;;;12.80;99.90;;;;;;5097292;28;20868;-81
2022/05/06 05:34:42;;;;;;;10.90;9.50;;;12.60;1.00;;;;;;5099348;28;20467;-81
2022/05/06 05:37:09;;;;;;;9.27;7.90;;;;;;;;;;5099447;28;20506;-82
2022/05/06 05:39:36;;;;;;;12.50;8.57;;;12.70;99.90;;;;;;5106356;28;20451;-81
2022/05/06 05:42:04;;;;;;;13.23;8.93;;;12.80;99.90;;;;;;5099442;28;20850;-82
2022/05/06 05:50:02;;;;;;;13.43;10.30;;;12.90;1.00;;;;;;5100370;28;20399;-81
2022/05/06 05:52:28;;;;;;;14.90;8.87;;;12.90;1.00;;;;;;5099169;28;20428;-80
2022/05/06 05:54:56;;;;;;;11.63;8.33;;;;;;;;;;5097571;28;20995;-79
2022/05/06 05:57:23;;;;;;;16.80;10.10;;;;;;;;;;5097173;28;20962;-78
2022/05/06 05:59:50;;;;;;;20.50;13.47;;;;;;;;;;5097653;28;20862;-81
2022/05/06 06:02:17;;;;;;;14.13;9.27;;;13.10;1.00;;;;;;5097063;28;20497;-79
2022/05/06 06:04:44;;;;;;;12.13;9.40;;;13.20;1.00;;;;;;5098215;28;21010;-80
2022/05/06 06:07:13;;;;;;;13.00;9.20;;;13.20;99.90;;;;;;5096821;28;20534;-80
2022/05/06 06:09:39;;;;;;;9.33;8.43;;;13.10;99.90;;;;;;5097824;28;20440;-81
2022/05/06 06:12:07;;;;;;;11.33;8.23;;;13.20;99.90;;;;;;5102121;28;20456;-82
2022/05/06 06:14:34;;;;;;;14.33;9.03;;;13.20;99.90;;;;;;5099273;28;20488;-83
2022/05/06 06:17:00;;;;;;;12.07;8.63;;;13.50;99.90;;;;;;5098709;28;20467;-81
2022/05/06 06:19:27;;;;;;;12.70;9.60;;;13.40;99.90;;;;;;5098932;28;20452;-83
2022/05/06 06:21:54;;;;;;;12.23;9.40;;;13.60;99.90;;;;;;5101010;28;20445;-80
2022/05/06 06:24:22;;;;;;;9.93;8.10;;;13.50;1.00;;;;;;5106535;28;20471;-80
2022/05/06 06:26:48;;;;;;;10.90;7.70;;;13.50;1.00;;;;;;5110662;28;20552;-80
2022/05/06 06:29:15;;;;;;;8.80;7.90;;;13.70;1.00;;;;;;5110009;28;20478;-81
2022/05/06 06:31:42;;;;;;;10.10;8.20;;;13.40;1.00;;;;;;5108036;28;20455;-82
2022/05/06 06:34:09;;;;;;;11.80;8.97;;;13.60;1.00;;;;;;5110476;28;20473;-81
2022/05/06 06:36:35;;;;;;;10.57;8.53;;;13.70;1.00;;;;;;5113510;28;20444;-81
2022/05/06 06:39:02;;;;;;;13.80;12.13;;;13.90;99.90;;;;;;5112488;28;20444;-80
2022/05/06 06:41:30;;;;;;;14.63;10.60;;;14.00;99.90;;;;;;5110116;28;20449;-79
2022/05/06 06:43:57;;;;;;;12.30;8.57;;;14.10;99.90;;;;;;5111478;28;20466;-80
2022/05/06 06:46:27;;;;;;;9.70;8.70;;;14.10;99.90;;;;;;5106007;28;20479;-82
2022/05/06 06:48:54;;;;;;;10.70;7.60;;;14.00;99.90;;;;;;5106492;28;20446;-81
2022/05/06 06:51:20;;;;;;;11.40;7.67;;;14.10;99.90;;;;;;5106180;28;20939;-83
2022/05/06 06:53:48;;;;;;;14.60;8.43;;;14.00;32.70;;;;;;5105409;28;20870;-83
2022/05/06 06:56:15;;;;;;;14.93;9.20;;;14.10;1.70;;;;;;5105075;28;20450;-83
2022/05/06 06:58:43;;;;;;;17.53;9.23;;;14.10;11.20;;;;;;5112489;28;20499;-82
2022/05/06 07:01:09;;;;;;;15.67;9.03;;;14.20;2.10;;;;;;5118469;28;20470;-80
2022/05/06 07:03:36;;;;;;;11.27;8.00;;;14.40;1.00;;;;;;5115859;28;21010;-81
2022/05/06 07:14:16;;;;;;;16.60;7.90;;;14.60;1.00;;;;;;5115561;28;20442;-82
2022/05/06 07:16:43;;;;;;;9.80;8.50;;;14.60;1.00;;;;;;5113389;28;20538;-83
2022/05/06 07:19:10;;;;;;;14.30;10.03;;;14.60;1.00;;;;;;5117690;28;20447;-81
2022/05/06 07:21:38;;;;;;;9.80;8.80;;;14.70;1.00;;;;;;5111671;28;21009;-81
2022/05/06 07:24:05;;;;;;;13.70;8.30;;;14.70;1.00;;;;;;5125627;22;20565;-85
2022/05/06 07:26:32;;;;;;;12.13;7.63;;;;;;;;;;5129669;28;20949;-85
2022/05/06 07:28:59;;;;;;;9.97;8.60;;;14.60;1.00;;;;;;5125520;28;20454;-85
2022/05/06 07:31:27;;;;;;;13.50;7.60;;;14.70;1.00;;;;;;5126332;28;20449;-85
2022/05/06 07:33:54;;;;;;;11.23;9.63;;;15.40;1.00;;;;;;5125622;28;20450;-85
2022/05/06 07:36:23;;;;;;;10.30;8.33;;;15.00;1.00;;;;;;5129194;28;20538;-85
2022/05/06 07:38:50;;;;;;;14.87;9.47;;;15.00;1.00;;;;;;5131359;28;20447;-86
2022/05/06 07:41:17;;;;;;;14.80;9.63;;;;;;;;;;5128981;28;20537;-87
2022/05/06 07:43:44;;;;;;;12.60;9.10;;;;;;;;;;5129144;28;20451;-86
2022/05/06 07:46:11;;;;;;;13.17;11.00;;;;;;;;;;5128229;28;20467;-86
2022/05/06 07:48:39;;;;;;;17.03;8.20;;;15.50;99.90;;;;;;5128635;28;20450;-86
2022/05/06 07:51:06;;;;;;;14.50;8.80;;;15.50;99.90;;;;;;5125019;28;20469;-87
2022/05/06 07:53:33;;;;;;;12.43;8.60;;;15.40;99.90;;;;;;5124030;28;20442;-87
2022/05/06 07:56:04;;;;;;;11.33;8.90;;;15.40;99.90;;;;;;5125881;28;20516;-86
2022/05/06 07:58:31;;;;;;;13.80;8.27;;;;;;;;;;5126305;28;20443;-86
2022/05/06 08:00:58;;;;;;;15.93;9.10;;;15.30;99.90;;;;;;5125643;28;20809;-85
2022/05/06 08:06:11;;;;;;;15.37;9.63;;;15.90;99.90;;;;;;5125873;28;20563;-85
2022/05/06 08:08:39;;;;;;;10.60;8.00;;;;;;;;;;5136665;28;20459;-85
2022/05/06 08:11:06;;;;;;;13.33;8.73;;;;;;;;;;5136107;28;20469;-86
2022/05/06 08:13:33;;;;;;;13.00;9.17;;;;;;;;;;5130893;28;20443;-85
2022/05/06 08:15:59;;;;;;;14.53;9.20;;;16.30;99.90;;;;;;5128015;28;20470;-86
2022/05/06 08:18:27;;;;;;;16.17;8.63;;;;;;;;;;5128137;28;20439;-86
2022/05/06 08:20:54;;;;;;;11.63;9.37;;;15.90;99.90;;;;;;5128467;28;20510;-84
2022/05/06 08:23:23;;;;;;;12.33;9.57;;;15.80;99.90;;;;;;5127051;28;20447;-86
2022/05/06 08:25:50;;;;;;;12.13;8.40;;;;;;;;;;5125500;28;20466;-85
2022/05/06 08:28:19;;;;;;;14.03;9.20;;;15.80;99.90;;;;;;5126560;28;20438;-87
2022/05/06 08:30:46;;;;;;;11.97;9.13;;;15.80;99.90;;;;;;5134868;28;20443;-85
2022/05/06 08:33:13;;;;;;;13.03;8.50;;;;;;;;;;5139359;28;20443;-85
2022/05/06 08:35:40;;;;;;;13.57;8.60;;;15.70;99.90;;;;;;5139051;28;20455;-85
2022/05/06 08:38:07;;;;;;;10.77;8.17;;;15.70;99.90;;;;;;5129495;28;20442;-85
2022/05/06 08:40:35;;;;;;;16.77;8.33;;;15.90;32.70;;;;;;5125465;28;20542;-86
2022/05/06 08:43:03;;;;;;;15.90;8.80;;;;;;;;;;5124489;28;20439;-85
2022/05/06 08:51:01;;;;;;;12.70;7.40;;;;;;;;;;5130147;28;20406;-86
2022/05/06 08:53:30;;;;;;;11.00;8.10;;;16.20;1.00;;;;;;5124524;28;20498;-86
2022/05/06 08:56:02;;;;;;;7.83;6.50;;;16.40;1.00;;;;;;5127466;28;20554;-87
2022/05/06 08:58:31;;;;;;;7.33;6.57;;;;;;;;;;5134723;28;20445;-86
2022/05/06 09:01:02;;;;;;;8.23;7.03;;;16.60;99.90;;;;;;5134066;28;20450;-86
2022/05/06 09:03:29;;;;;;;9.57;8.17;;;16.60;1.00;;;;;;5124060;28;20497;-86
2022/05/06 09:05:58;;;;;;;8.30;5.03;;;16.70;1.00;;;;;;5123087;28;20463;-86
2022/05/06 09:08:36;;;;;;;9.27;6.50;;;17.00;1.00;;;;;;5123701;28;20447;-86
2022/05/06 09:11:07;;;;;;;14.03;7.90;;;17.00;1.00;;;;;;5122294;28;20888;-86
2022/05/06 09:13:34;;;;;;;11.33;7.17;;;;;;;;;;5120424;28;20481;-86
2022/05/06 09:19:15;;;;;;;8.67;7.03;;;16.30;1.00;;;;;;5120751;28;20927;-85
2022/05/06 09:21:42;;;;;;;7.77;7.03;;;;;;;;;;5120946;28;20440;-85
2022/05/06 09:24:17;;;;;;;9.87;6.50;;;16.50;1.00;;;;;;5136287;28;20451;-85
2022/05/06 09:27:01;;;;;;;5.27;4.53;;;16.60;1.00;;;;;;5138522;28;20481;-85
2022/05/06 09:29:34;;;;;;;7.03;5.43;;;16.60;1.00;;;;;;5138716;28;20752;-85
2022/05/06 09:32:16;;;;;;;6.93;5.40;;;16.20;1.00;;;;;;5138766;28;20459;-86
2022/05/06 09:34:43;;;;;;;6.53;5.90;;;;;;;;;;5137267;28;20492;-86
2022/05/06 09:37:12;;;;;;;7.80;5.57;;;17.00;1.00;;;;;;5136908;28;20449;-86
2022/05/06 09:39:41;;;;;;;6.80;5.13;;;;;;;;;;5130060;28;20435;-86
2022/05/06 09:42:10;;;;;;;9.30;6.70;;;17.20;1.00;;;;;;5122053;28;20526;-86
2022/05/06 09:44:37;;;;;;;7.70;5.83;;;;;;;;;;5121329;28;20466;-86
2022/05/06 09:47:11;;;;;;;9.20;6.60;;;17.10;1.00;;;;;;5120695;28;20891;-86
2022/05/06 09:49:39;;;;;;;7.90;5.83;;;17.10;1.00;;;;;;5122785;28;20484;-86
2022/05/06 09:52:14;;;;;;;7.30;5.33;;;17.40;4.30;;;;;;5124812;28;20443;-86
2022/05/06 09:54:42;;;;;;;8.33;6.43;;;17.70;7.30;;;;;;5121353;28;20487;-86
2022/05/06 09:57:11;;;;;;;9.00;5.73;;;17.50;1.00;;;;;;5122096;28;20447;-86
2022/05/06 09:59:38;;;;;;;5.13;4.73;;;17.30;1.00;;;;;;5120020;28;20431;-86
2022/05/06 10:02:12;;;;;;;8.63;5.30;;;16.80;1.00;;;;;;5120878;28;20457;-86
2022/05/06 10:04:40;;;;;;;5.00;3.87;;;;;;;;;;5127827;28;20471;-88
2022/05/06 10:07:08;;;;;;;4.83;3.70;;;17.80;1.00;;;;;;5124803;28;20483;-87
2022/05/06 10:09:39;;;;;;;5.90;4.60;;;17.60;1.00;;;;;;5123630;28;20474;-85
2022/05/06 10:12:09;;;;;;;7.73;6.00;;;17.60;1.00;;;;;;5123721;28;20423;-85
2022/05/06 10:14:40;;;;;;;6.90;5.40;;;17.10;1.00;;;;;;5123844;28;20502;-86
2022/05/06 10:17:06;;;;;;;5.80;4.50;;;17.30;1.00;;;;;;5124404;28;20476;-86
2022/05/06 10:19:46;;;;;;;6.00;4.63;;;17.40;1.00;;;;;;5125688;28;20473;-86
2022/05/06 10:22:13;;;;;;;6.90;4.07;;;17.70;1.00;;;;;;5128483;28;20464;-86
2022/05/06 10:24:41;;;;;;;6.43;4.70;;;18.20;1.00;;;;;;5138450;28;20493;-86
2022/05/06 10:27:22;;;;;;;5.73;4.27;;;18.20;1.00;;;;;;5136796;28;20546;-85
2022/05/06 10:32:58;;;;;;;7.30;4.87;;;18.30;1.00;;;;;;5131954;28;21014;-86
2022/05/06 10:35:42;;;;;;;5.83;4.60;;;18.10;1.00;;;;;;5135294;28;20523;-86
2022/05/06 10:38:23;;;;;;;4.00;3.70;;;17.90;1.00;;;;;;5124874;28;20484;-86
2022/05/06 10:40:54;;;;;;;6.70;4.47;;;18.20;1.00;;;;;;5124827;28;20435;-86
2022/05/06 10:44:00;;;;;;;6.23;4.03;;;18.50;1.00;;;;;;5122894;28;20482;-86
2022/05/06 10:46:40;;;;;;;6.20;4.97;;;18.70;1.00;;;;;;5115284;28;20446;-86
2022/05/06 10:49:50;;;;;;;7.40;4.27;;;18.40;1.00;;;;;;5124225;28;20431;-86
2022/05/06 10:52:39;;;;;;;6.03;4.60;;;18.20;1.00;;;;;;5124700;28;20840;-86
2022/05/06 10:55:06;;;;;;;4.63;4.07;;;18.00;1.00;;;;;;5124851;28;20462;-86
2022/05/06 10:57:46;;;;;;;7.07;5.10;;;17.80;1.00;;;;;;5126144;28;20443;-85
2022/05/06 11:00:14;;;;;;;8.57;4.97;;;17.90;1.00;;;;;;5130014;28;20423;-86
2022/05/06 11:02:42;;;;;;;4.47;3.40;;;18.20;1.00;;;;;;5125769;28;20480;-85
2022/05/06 11:05:14;;;;;;;3.60;3.20;;;18.20;1.00;;;;;;5124690;28;20546;-86
2022/05/06 11:07:42;;;;;;;4.87;3.80;;;18.20;1.00;;;;;;5123798;28;20477;-86
2022/05/06 11:10:09;;;;;;;4.60;4.03;;;18.20;1.00;;;;;;5125670;28;20451;-86
2022/05/06 11:12:38;;;;;;;9.23;3.03;;;18.40;1.00;;;;;;5125476;28;20439;-86
2022/05/06 11:15:07;;;;;;;3.87;3.50;;;18.50;1.00;;;;;;5132360;28;20970;-86
2022/05/06 11:17:34;;;;;;;5.77;3.80;;;;;;;;;;5133430;28;20450;-85
2022/05/06 11:20:05;;;;;;;6.40;3.10;;;18.60;1.00;;;;;;5132413;28;20480;-86
2022/05/06 11:22:33;;;;;;;5.40;3.97;;;;;;;;;;5136496;28;20435;-85
2022/05/06 11:25:00;;;;;;;3.77;3.47;;;;;;;;;;5136929;28;20541;-85
2022/05/06 11:27:27;;;;;;;1.93;1.83;;;19.30;1.00;;;;;;5129118;28;20842;-85
2022/05/06 11:29:56;;;;;;;3.50;3.20;;;19.40;1.00;;;;;;5126725;28;20439;-86
2022/05/06 11:32:23;;;;;;;4.70;3.73;;;;;;;;;;5128261;28;20446;-86
2022/05/06 11:34:56;;;;;;;3.20;3.00;;;18.90;1.00;;;;;;5129265;28;20474;-86
2022/05/06 11:37:33;;;;;;;3.40;2.70;;;19.20;1.00;;;;;;5135679;28;20495;-87
2022/05/06 11:40:18;;;;;;;2.47;2.27;;;19.10;1.00;;;;;;5131356;28;20483;-86
2022/05/06 11:42:46;;;;;;;8.57;2.70;;;19.30;99.90;;;;;;5130394;28;20446;-86
2022/05/06 11:48:04;;;;;;;3.67;3.33;;;19.30;99.90;;;;;;5098525;28;20474;-85
2022/05/06 11:50:32;;;;;;;3.30;2.67;;;19.10;99.90;;;;;;5132196;28;20435;-86
2022/05/06 11:53:02;;;;;;;3.60;3.30;;;18.70;99.90;;;;;;5124756;28;20447;-86
2022/05/06 11:55:29;;;;;;;4.27;3.27;;;;;;;;;;5123785;28;20476;-86
2022/05/06 11:57:56;;;;;;;3.47;2.90;;;;;;;;;;5123461;28;20496;-86
2022/05/06 12:00:24;;;;;;;4.00;3.47;;;18.70;99.90;;;;;;5123237;28;20509;-86
2022/05/06 12:02:52;;;;;;;3.70;3.10;;;18.80;1.00;;;;;;5122269;28;20458;-86
2022/05/06 12:05:19;;;;;;;4.00;3.50;;;18.90;99.90;;;;;;5122520;28;20442;-86
2022/05/06 12:07:48;;;;;;;5.03;2.90;;;19.70;99.90;;;;;;5126051;28;20822;-85
2022/05/06 12:10:25;;;;;;;3.33;3.03;;;19.70;99.90;;;;;;5128504;28;20450;-86
2022/05/06 12:12:56;;;;;;;3.00;2.80;;;19.90;1.00;;;;;;5140131;28;20411;-86
2022/05/06 12:15:29;;;;;;;2.73;2.47;;;20.30;1.00;;;;;;5139424;28;20451;-86
2022/05/06 12:18:02;;;;;;;5.40;2.80;;;20.50;1.00;;;;;;5121664;28;20428;-86
2022/05/06 12:20:34;;;;;;;3.03;2.30;;;20.60;1.00;;;;;;5121742;28;20485;-85
2022/05/06 12:23:01;;;;;;;3.30;2.63;;;20.40;1.00;;;;;;5129090;28;20459;-85
2022/05/06 12:25:29;;;;;;;3.10;2.53;;;20.40;1.00;;;;;;5130697;28;20471;-85
2022/05/06 12:28:08;;;;;;;4.90;2.87;;;20.00;1.00;;;;;;5134833;28;20463;-86
2022/05/06 12:30:35;;;;;;;4.63;2.63;;;20.00;1.00;;;;;;5127303;28;20443;-85
2022/05/06 12:33:04;;;;;;;4.13;2.70;;;19.60;1.00;;;;;;5123025;28;20447;-85
2022/05/06 12:35:30;;;;;;;3.27;2.70;;;19.70;1.00;;;;;;5124473;28;20766;-85
2022/05/06 12:37:58;;;;;;;4.50;2.67;;;19.60;1.00;;;;;;5123210;28;20454;-85
2022/05/06 12:40:35;;;;;;;4.20;3.03;;;19.40;1.00;;;;;;5125629;28;20998;-85
2022/05/06 12:43:07;;;;;;;4.00;2.13;;;19.90;1.00;;;;;;5137887;28;20411;-85
2022/05/06 12:45:34;;;;;;;2.50;2.00;;;19.70;1.00;;;;;;5138853;28;20447;-85
2022/05/06 12:50:46;;;;;;;2.57;2.37;;;20.00;1.00;;;;;;5125026;28;20779;-86
2022/05/06 12:53:12;;;;;;;5.53;4.03;;;20.30;1.00;;;;;;5129358;28;20504;-86
2022/05/06 12:55:42;;;;;;;4.60;3.50;;;20.40;1.00;;;;;;5124664;28;20482;-87
2022/05/06 12:58:10;;;;;;;5.50;3.77;;;;;;;;;;5123609;28;20469;-86
2022/05/06 13:00:38;;;;;;;3.07;2.53;;;19.70;1.00;;;;;;5137558;28;20439;-86
2022/05/06 13:03:05;;;;;;;3.20;2.30;;;19.40;1.00;;;;;;5138594;28;20442;-86
2022/05/06 13:05:31;;;;;;;3.10;2.27;;;19.50;1.00;;;;;;5138595;28;20451;-86
2022/05/06 13:07:58;;;;;;;3.13;2.50;;;19.70;1.00;;;;;;5130378;28;20482;-86
2022/05/06 13:10:25;;;;;;;6.33;3.90;;;19.60;1.00;;;;;;5123929;28;20443;-86
2022/05/06 13:12:52;;;;;;;4.93;2.80;;;19.80;1.00;;;;;;5132304;28;20465;-86
2022/05/06 13:15:19;;;;;;;4.20;3.00;;;19.70;1.00;;;;;;5133222;28;20467;-86
2022/05/06 13:17:47;;;;;;;2.67;1.83;;;;;;;;;;5130834;28;20495;-86
2022/05/06 13:20:14;;;;;;;2.80;1.90;;;19.80;1.00;;;;;;5132626;28;20426;-86
2022/05/06 13:22:41;;;;;;;8.03;2.87;;;;;;;;;;5127078;28;20466;-86
2022/05/06 13:25:09;;;;;;;7.20;5.27;;;19.70;1.00;;;;;;5136148;22;20728;-84
2022/05/06 13:27:35;;;;;;;4.97;3.63;;;19.70;1.00;;;;;;5110057;28;20484;-84
2022/05/06 13:30:04;;;;;;;6.93;6.23;;;19.70;1.00;;;;;;5109870;28;20786;-84
2022/05/06 13:32:31;;;;;;;3.70;3.10;;;19.80;1.00;;;;;;5110669;28;20474;-84
2022/05/06 13:34:57;;;;;;;4.30;3.87;;;19.80;1.00;;;;;;5113187;28;20463;-84
2022/05/06 13:37:24;;;;;;;4.67;4.27;;;;;;;;;;5113032;28;20416;-83
2022/05/06 13:39:51;;;;;;;5.60;4.70;;;19.80;1.00;;;;;;5110453;28;20473;-84
2022/05/06 13:42:17;;;;;;;3.43;2.73;;;20.20;1.00;;;;;;5109385;28;20443;-84
2022/05/06 13:44:46;;;;;;;4.33;2.43;;;19.90;1.00;;;;;;5110002;28;20447;-84
2022/05/06 13:47:14;;;;;;;2.10;1.77;;;19.60;1.00;;;;;;5109028;28;20534;-85